createdAt,value
2023-05-05T00:01:06.278Z,8.78
2023-05-05T00:06:08.227Z,8.78
2023-05-05T00:11:09.900Z,8.76
2023-05-05T00:16:11.419Z,8.72
2023-05-05T00:21:13.285Z,8.68
2023-05-05T00:26:14.776Z,8.66
2023-05-05T00:31:16.948Z,8.64
2023-05-05T00:36:18.592Z,8.63
2023-05-05T00:41:20.383Z,8.61
2023-05-05T00:46:28.024Z,8.56
2023-05-05T00:51:29.869Z,8.51
2023-05-05T00:56:31.899Z,8.40
2023-05-05T01:01:33.743Z,8.28
2023-05-05T01:06:43.958Z,8.15
2023-05-05T01:11:55.462Z,8.06
2023-05-05T01:17:28.762Z,8.01
2023-05-05T01:22:41.684Z,7.97
2023-05-05T01:27:55.832Z,7.94
2023-05-05T01:33:10.726Z,7.93
2023-05-05T01:38:17.202Z,7.93
2023-05-05T01:43:21.260Z,7.93
2023-05-05T01:48:24.632Z,7.91
2023-05-05T01:53:27.695Z,7.83
2023-05-05T01:58:32.557Z,7.80
2023-05-05T02:03:37.782Z,7.78
2023-05-05T02:08:41.099Z,7.82
2023-05-05T02:13:44.364Z,7.87
2023-05-05T02:18:47.417Z,7.87
2023-05-05T02:23:51.929Z,7.85
2023-05-05T02:29:18.818Z,7.86
2023-05-05T02:34:26.702Z,7.87
2023-05-05T02:39:35.863Z,7.87
2023-05-05T02:44:41.425Z,7.86
2023-05-05T02:49:43.284Z,7.87
2023-05-05T02:54:44.815Z,7.88
2023-05-05T03:00:13.856Z,7.85
2023-05-05T03:05:24.655Z,7.84
2023-05-05T03:10:30.147Z,7.86
2023-05-05T03:15:37.714Z,7.82
2023-05-05T03:20:39.951Z,7.86
2023-05-05T03:25:45.897Z,7.96
2023-05-05T03:30:48.217Z,8.05
2023-05-05T03:35:49.695Z,8.18
2023-05-05T03:40:51.172Z,8.37
2023-05-05T03:45:52.787Z,8.58
2023-05-05T03:50:54.351Z,8.68
2023-05-05T03:55:55.860Z,8.73
2023-05-05T04:00:57.574Z,8.85
2023-05-05T04:05:59.137Z,9.08
2023-05-05T04:11:02.575Z,9.31
2023-05-05T04:16:04.860Z,9.54
2023-05-05T04:21:06.434Z,9.77
2023-05-05T04:26:08.026Z,10.08
2023-05-05T04:31:10.833Z,10.40
2023-05-05T04:36:12.464Z,10.62
2023-05-05T04:41:14.019Z,10.76
2023-05-05T04:46:15.986Z,10.86
2023-05-05T04:51:17.540Z,10.94
2023-05-05T04:56:19.061Z,10.99
2023-05-05T05:01:20.800Z,11.04
2023-05-05T05:06:22.418Z,11.05
2023-05-05T05:11:23.940Z,11.09
2023-05-05T05:16:25.683Z,11.39
2023-05-05T05:21:27.715Z,11.60
2023-05-05T05:26:29.272Z,11.77
2023-05-05T05:31:31.525Z,12.12
2023-05-05T05:36:33.375Z,12.30
2023-05-05T05:41:34.885Z,12.60
2023-05-05T05:46:36.427Z,12.90
2023-05-05T05:51:37.962Z,12.78
2023-05-05T05:56:39.504Z,12.55
2023-05-05T06:01:41.404Z,12.61
2023-05-05T06:06:42.912Z,12.57
2023-05-05T06:11:44.489Z,12.35
2023-05-05T06:16:45.978Z,12.19
2023-05-05T06:21:48.951Z,12.24
2023-05-05T06:26:50.587Z,12.08
2023-05-05T06:31:52.206Z,11.99
2023-05-05T06:36:53.772Z,12.00
2023-05-05T06:41:55.596Z,12.12
2023-05-05T06:46:57.278Z,12.17
2023-05-05T06:51:58.835Z,12.22
2023-05-05T06:57:00.305Z,12.36
2023-05-05T07:02:01.898Z,12.54
2023-05-05T07:07:03.429Z,12.67
2023-05-05T07:12:05.141Z,12.76
2023-05-05T07:17:06.695Z,12.85
2023-05-05T07:22:08.256Z,12.95
2023-05-05T07:27:09.832Z,13.00
2023-05-05T07:32:21.789Z,13.13
2023-05-05T07:37:26.691Z,13.20
2023-05-05T07:42:28.245Z,13.35
2023-05-05T07:47:30.294Z,13.64
2023-05-05T07:52:44.999Z,13.85
2023-05-05T07:57:49.982Z,14.18
2023-05-05T08:02:51.598Z,14.54
2023-05-05T08:07:53.800Z,14.76
2023-05-05T08:12:55.836Z,15.01
2023-05-05T08:17:57.490Z,15.27
2023-05-05T08:22:59.361Z,15.44
2023-05-05T08:28:01.206Z,15.47
2023-05-05T08:33:02.739Z,15.61
2023-05-05T08:38:04.282Z,15.80
2023-05-05T08:43:06.157Z,16.06
2023-05-05T08:48:08.947Z,16.16
2023-05-05T08:53:16.643Z,16.23
2023-05-05T08:58:19.545Z,16.26
2023-05-05T09:03:21.578Z,16.18
2023-05-05T09:08:23.280Z,16.16
2023-05-05T09:13:24.954Z,16.34
2023-05-05T09:18:26.810Z,16.50
2023-05-05T09:23:28.358Z,16.64
2023-05-05T09:28:30.189Z,16.72
2023-05-05T09:33:31.937Z,16.55
2023-05-05T09:38:36.574Z,16.51
2023-05-05T09:43:52.559Z,16.44
2023-05-05T09:48:54.391Z,16.46
2023-05-05T09:53:56.823Z,16.45
2023-05-05T09:59:11.926Z,16.33
2023-05-05T10:04:28.096Z,16.28
2023-05-05T10:09:31.807Z,16.47
2023-05-05T10:14:34.273Z,16.81
2023-05-05T10:19:37.148Z,16.98
2023-05-05T10:24:47.244Z,17.23
2023-05-05T10:29:59.089Z,17.23
2023-05-05T10:35:02.815Z,17.00
2023-05-05T10:40:05.986Z,17.00
2023-05-05T10:45:08.710Z,17.04
2023-05-05T10:50:27.214Z,16.98
2023-05-05T10:55:36.525Z,16.98
2023-05-05T11:00:41.550Z,16.98
2023-05-05T11:06:05.690Z,17.13
2023-05-05T11:11:10.440Z,17.17
2023-05-05T11:16:45.877Z,16.97
2023-05-05T11:22:00.812Z,17.02
2023-05-05T11:27:03.332Z,17.18
2023-05-05T11:32:11.747Z,17.36
2023-05-05T11:37:13.505Z,17.58
2023-05-05T11:42:25.739Z,17.56
2023-05-05T11:47:29.221Z,17.42
2023-05-05T11:52:30.919Z,17.37
2023-05-05T11:57:32.493Z,17.37
2023-05-05T12:02:35.110Z,17.32
2023-05-05T12:07:37.003Z,17.34
2023-05-05T12:12:40.563Z,17.27
2023-05-05T12:17:45.194Z,17.38
2023-05-05T12:22:46.986Z,17.25
2023-05-05T12:27:53.171Z,16.98
2023-05-05T12:33:08.340Z,16.92
2023-05-05T12:38:10.471Z,17.30
2023-05-05T12:43:25.054Z,17.28
2023-05-05T12:48:26.675Z,17.14
2023-05-05T12:53:28.248Z,17.39
2023-05-05T12:58:32.775Z,17.75
2023-05-05T13:03:34.400Z,18.08
2023-05-05T13:08:43.572Z,18.17
2023-05-05T13:13:45.093Z,17.77
2023-05-05T13:18:50.652Z,17.53
2023-05-05T13:23:52.129Z,17.40
2023-05-05T13:28:54.089Z,17.40
2023-05-05T13:33:55.779Z,17.54
2023-05-05T13:38:57.407Z,17.33
2023-05-05T13:43:58.886Z,16.88
2023-05-05T13:49:00.381Z,16.72
2023-05-05T13:54:02.145Z,16.89
2023-05-05T13:59:03.743Z,16.79
2023-05-05T14:04:06.056Z,16.51
2023-05-05T14:09:08.189Z,16.44
2023-05-05T14:14:09.721Z,16.58
2023-05-05T14:19:11.221Z,16.82
2023-05-05T14:24:12.790Z,16.89
2023-05-05T14:29:14.304Z,16.66
2023-05-05T14:34:15.862Z,16.67
2023-05-05T14:39:17.479Z,16.85
2023-05-05T14:44:19.007Z,16.94
2023-05-05T14:49:20.572Z,16.99
2023-05-05T14:54:27.942Z,16.79
2023-05-05T14:59:30.829Z,16.56
2023-05-05T15:04:32.379Z,16.36
2023-05-05T15:09:33.958Z,16.39
2023-05-05T15:14:36.787Z,16.22
2023-05-05T15:19:38.361Z,16.02
2023-05-05T15:24:39.998Z,15.63
2023-05-05T15:29:41.548Z,15.41
2023-05-05T15:34:44.879Z,15.17
2023-05-05T15:39:46.404Z,14.93
2023-05-05T15:44:48.018Z,14.88
2023-05-05T15:49:49.611Z,14.76
2023-05-05T15:54:51.259Z,14.71
2023-05-05T15:59:53.571Z,14.61
2023-05-05T16:04:55.262Z,14.53
2023-05-05T16:09:57.140Z,14.39
2023-05-05T16:14:59.086Z,14.29
2023-05-05T16:20:00.756Z,14.21
2023-05-05T16:25:02.372Z,14.04
2023-05-05T16:30:04.576Z,13.88
2023-05-05T16:35:07.763Z,13.67
2023-05-05T16:40:10.665Z,13.61
2023-05-05T16:45:12.249Z,13.63
2023-05-05T16:50:13.828Z,13.77
2023-05-05T16:55:15.542Z,13.92
2023-05-05T17:00:23.631Z,13.97
2023-05-05T17:05:25.391Z,13.80
2023-05-05T17:10:27.511Z,13.68
2023-05-05T17:15:29.119Z,13.43
2023-05-05T17:20:31.157Z,13.14
2023-05-05T17:25:32.702Z,12.92
2023-05-05T17:30:35.067Z,12.74
2023-05-05T17:35:37.717Z,12.53
2023-05-05T17:40:39.223Z,12.37
2023-05-05T17:45:42.291Z,12.25
2023-05-05T17:50:43.789Z,12.11
2023-05-05T17:55:46.056Z,11.94
2023-05-05T18:00:47.927Z,11.79
2023-05-05T18:05:49.428Z,11.64
2023-05-05T18:10:51.017Z,11.52
2023-05-05T18:15:52.681Z,11.41
2023-05-05T18:20:54.262Z,11.36
2023-05-05T18:25:55.825Z,11.29
2023-05-05T18:30:57.439Z,11.24
2023-05-05T18:35:59.031Z,11.21
2023-05-05T18:41:00.506Z,11.16
2023-05-05T18:46:02.575Z,11.10
2023-05-05T18:51:04.965Z,11.05
2023-05-05T18:56:07.167Z,10.97
2023-05-05T19:01:08.688Z,10.92
2023-05-05T19:06:10.266Z,10.88
2023-05-05T19:11:11.875Z,10.83
2023-05-05T19:16:13.520Z,10.75
2023-05-05T19:21:15.098Z,10.67
2023-05-05T19:26:16.625Z,10.64
2023-05-05T19:31:18.231Z,10.57
2023-05-05T19:36:19.868Z,10.54
2023-05-05T19:41:21.508Z,10.49
2023-05-05T19:46:25.593Z,10.45
2023-05-05T19:51:27.326Z,10.40
2023-05-05T19:56:28.844Z,10.36
2023-05-05T20:01:30.589Z,10.30
2023-05-05T20:06:33.109Z,10.26
2023-05-05T20:11:35.550Z,10.21
2023-05-05T20:16:37.257Z,10.16
2023-05-05T20:21:38.929Z,10.11
2023-05-05T20:26:40.426Z,10.02
2023-05-05T20:31:42.516Z,9.97
2023-05-05T20:36:44.206Z,9.88
2023-05-05T20:41:46.686Z,9.81
2023-05-05T20:46:48.292Z,9.74
2023-05-05T20:51:50.018Z,9.69
2023-05-05T20:56:53.167Z,9.63
2023-05-05T21:01:58.355Z,9.58
2023-05-05T21:06:59.862Z,9.54
2023-05-05T21:12:02.467Z,9.49
2023-05-05T21:17:04.041Z,9.46
2023-05-05T21:22:05.711Z,9.42
2023-05-05T21:27:07.213Z,9.38
2023-05-05T21:32:10.259Z,9.35
2023-05-05T21:37:12.149Z,9.32
2023-05-05T21:42:13.628Z,9.26
2023-05-05T21:47:16.435Z,9.22
2023-05-05T21:52:17.980Z,9.16
2023-05-05T21:57:19.938Z,9.11
2023-05-05T22:02:21.440Z,9.04
2023-05-05T22:07:24.210Z,8.96
2023-05-05T22:12:25.772Z,8.88
2023-05-05T22:17:27.266Z,8.80
2023-05-05T22:22:28.744Z,8.72
2023-05-05T22:27:30.230Z,8.64
2023-05-05T22:32:32.285Z,8.58
2023-05-05T22:37:33.826Z,8.50
2023-05-05T22:42:35.659Z,8.42
2023-05-05T22:47:37.411Z,8.34
2023-05-05T22:52:39.183Z,8.30
2023-05-05T22:57:41.726Z,8.24
2023-05-05T23:02:43.256Z,8.20
2023-05-05T23:07:44.792Z,8.13
2023-05-05T23:12:46.520Z,8.04
2023-05-05T23:17:48.379Z,8.00
2023-05-05T23:22:50.028Z,7.92
2023-05-05T23:27:51.580Z,7.84
2023-05-05T23:32:53.121Z,7.78
2023-05-05T23:37:54.708Z,7.72
2023-05-05T23:47:57.739Z,7.59
2023-05-05T23:52:59.518Z,7.52
2023-05-05T23:58:01.218Z,7.46
